Latest Weather Observations for Onslow Airport

IDW60801

Issued at 10:33 pm WST Wednesday 8 July 2020 (issued every 10 minutes, with the page automatically refreshed every 10 minutes)

About weather observations | Map of weather stations | Latest weather observations for WA | Other Formats
Station Details ID: 005017 Name: ONSLOW AIRPORT Lat: -21.67 Lon: 115.11 Height: 10.5 m
Data from the previous 72 hours. | See also: Recent months at Onslow Airport
Date/Time
WST
Temp
°C
App
Temp
°C
Dew
Point
°C
Rel
Hum
%
Delta-T
°C
Wind Press
QNH
hPa
Press
MSL
hPa
Rain since
9am
mm
Dir  Spd
km/h
Gust
km/h
Spd
kts
Gust
kts
08/10:30pm 19.5 16.2 10.8 57 4.7 WSW 19 22 10 12 1017.4 1017.4 0.0
08/10:00pm 18.6 16.7 11.7 64 3.8 WSW 13 17 7 9 1017.4 1017.4 0.0
08/09:30pm 18.8 16.7 12.3 66 3.6 WSW 15 19 8 10 1017.5 1017.5 0.0
08/09:00pm 19.4 16.4 10.7 57 4.7 WSW 17 19 9 10 1017.3 1017.3 0.0
08/08:30pm 19.9 16.8 10.3 54 5.2 WSW 17 20 9 11 1017.4 1017.4 0.0
08/08:00pm 19.5 16.4 10.2 55 5.0 WSW 17 19 9 10 1017.3 1017.3 0.0
08/07:30pm 20.3 17.5 11.5 57 4.9 WSW 17 20 9 11 1017.1 1017.1 0.0
08/07:00pm 20.3 18.4 13.0 63 4.1 WSW 15 17 8 9 1017.0 1017.0 0.0
08/06:30pm 21.3 19.7 14.0 63 4.2 W 15 20 8 11 1016.8 1016.8 0.0
08/06:00pm 22.2 21.1 15.3 65 4.1 W 15 19 8 10 1016.4 1016.4 0.0
08/05:30pm 23.9 21.8 14.6 56 5.5 WNW 19 24 10 13 1016.3 1016.3 0.0
08/05:00pm 25.8 21.9 6.9 30 9.9 NW 17 22 9 12 1016.2 1016.2 0.0
08/04:30pm 27.0 22.4 3.5 22 11.7 NW 17 20 9 11 1016.0 1016.0 0.0
08/04:00pm 27.4 21.7 -0.6 16 13.0 NW 19 20 10 11 1016.0 1016.0 0.0
08/03:30pm 28.4 22.8 0.2 16 13.4 NW 19 20 10 11 1016.1 1016.1 0.0
08/03:00pm 28.5 22.2 -3.6 12 14.2 NNW 20 24 11 13 1016.1 1016.1 0.0
08/02:30pm 29.0 22.6 -7.0 9 15.1 NNW 19 24 10 13 1016.3 1016.3 0.0
08/02:00pm 29.2 23.2 -6.9 9 15.2 N 17 20 9 11 1016.7 1016.7 0.0
08/01:30pm 28.6 22.7 -6.0 10 14.7 NNE 17 20 9 11 1017.1 1017.1 0.0
08/01:00pm 28.9 23.3 -3.3 12 14.4 NNE 17 20 9 11 1017.4 1017.4 0.0
08/12:30pm 28.9 23.5 -4.5 11 14.6 NE 15 19 8 10 1018.1 1018.1 0.0
08/12:00pm 28.5 23.7 0.3 16 13.4 ENE 15 20 8 11 1018.6 1018.6 0.0
08/11:30am 26.8 23.0 4.0 23 11.4 ENE 13 19 7 10 1019.1 1019.1 0.0
08/11:00am 26.5 22.3 5.5 26 10.8 E 17 20 9 11 1019.4 1019.4 0.0
08/10:30am 24.9 21.8 8.8 36 8.7 ESE 15 20 8 11 1019.7 1019.7 0.0
08/10:00am 23.0 20.2 10.1 44 7.0 SE 15 19 8 10 1020.0 1020.0 0.0
08/09:30am 21.4 18.1 9.6 47 6.3 SE 17 19 9 10 1020.1 1020.1 0.0
08/09:00am 19.8 16.1 9.4 51 5.5 SSE 19 22 10 12 1020.0 1020.0 0.0
08/08:30am 18.1 14.4 9.5 57 4.5 SSE 19 22 10 12 1019.9 1019.9 0.0
08/08:00am 17.4 13.7 9.6 60 4.1 SE 19 20 10 11 1019.4 1019.4 0.0
08/07:30am 15.8 12.4 9.2 65 3.4 S 17 24 9 13 1019.3 1019.3 0.0
08/07:00am 15.8 13.0 9.9 68 3.1 SSE 15 19 8 10 1019.0 1019.0 0.0
08/06:30am 16.2 13.2 10.5 69 3.0 S 17 24 9 13 1018.6 1018.6 0.0
08/06:00am 15.4 12.6 10.0 70 2.8 SSE 15 19 8 10 1018.4 1018.4 0.0
08/05:30am 15.6 13.2 9.9 69 3.0 SSE 13 15 7 8 1018.3 1018.3 0.0
08/05:00am 15.6 13.1 9.7 68 3.1 SSE 13 15 7 8 1018.3 1018.3 0.0
08/04:30am 15.7 13.0 9.1 65 3.4 SSE 13 15 7 8 1018.3 1018.3 0.0
08/04:00am 16.6 13.9 10.5 67 3.2 SE 15 17 8 9 1018.4 1018.4 0.0
08/03:30am 16.7 14.0 10.3 66 3.4 SSE 15 17 8 9 1018.4 1018.4 0.0
08/03:00am 17.7 15.5 10.8 64 3.7 S 13 20 7 11 1018.2 1018.2 0.0
08/02:30am 17.6 14.5 10.2 62 3.9 S 17 20 9 11 1018.2 1018.2 0.0
08/02:00am 18.0 15.5 10.9 63 3.8 SSW 15 19 8 10 1018.5 1018.5 0.0
08/01:30am 18.5 16.2 11.8 65 3.7 SSW 15 19 8 10 1018.6 1018.6 0.0
08/01:00am 18.6 16.6 12.6 68 3.3 SW 15 17 8 9 1018.9 1018.9 0.0
08/12:30am 19.4 17.1 13.1 67 3.6 SW 17 19 9 10 1019.0 1019.0 0.0
08/12:00am 20.0 19.1 14.8 72 3.0 WSW 13 17 7 9 1019.2 1019.2 0.0
 
Date/Time
WST
Temp
°C
App
Temp
°C
Dew
Point
°C
Rel
Hum
%
Delta-T
°C
Wind Press
QNH
hPa
Press
MSL
hPa
Rain since
9am
mm
Dir  Spd
km/h
Gust
km/h
Spd
kts
Gust
kts
07/11:30pm 19.9 19.3 15.7 77 2.5 W 13 15 7 8 1019.3 1019.3 0.0
07/11:00pm 19.2 18.9 15.5 79 2.2 W 11 13 6 7 1019.4 1019.4 0.0
07/10:30pm 19.2 18.6 15.7 80 2.1 W 13 17 7 9 1019.5 1019.5 0.0
07/10:00pm 19.1 19.4 16.1 83 1.8 W 9 11 5 6 1019.6 1019.6 0.0
07/09:30pm 19.4 19.8 16.2 82 1.9 WSW 9 11 5 6 1019.5 1019.5 0.0
07/09:00pm 19.8 19.8 15.2 75 2.7 WNW 9 9 5 5 1019.6 1019.6 0.0
07/08:30pm 20.2 20.5 15.0 72 3.1 WNW 7 9 4 5 1019.5 1019.5 0.0
07/08:00pm 20.2 20.4 14.6 70 3.3 W 7 9 4 5 1019.5 1019.5 0.0
07/07:30pm 20.4 20.4 14.1 67 3.6 W 7 11 4 6 1019.2 1019.2 0.0
07/07:00pm 20.9 20.3 14.5 67 3.7 WNW 11 13 6 7 1019.0 1019.0 0.0
07/06:30pm 21.2 20.4 14.1 64 4.1 WNW 11 13 6 7 1018.6 1018.6 0.0
07/06:00pm 22.2 20.8 13.3 57 5.1 WNW 13 15 7 8 1018.3 1018.3 0.0
07/05:30pm 24.0 21.7 12.9 50 6.4 NNW 17 20 9 11 1017.9 1017.9 0.0
07/05:00pm 25.5 21.4 8.5 34 9.1 NNW 20 26 11 14 1017.6 1017.6 0.0
07/04:30pm 26.7 21.0 2.6 21 11.8 N 22 26 12 14 1017.4 1017.4 0.0
07/04:00pm 27.8 21.7 0.5 17 12.9 N 22 26 12 14 1017.3 1017.3 0.0
07/03:30pm 28.8 22.8 -3.4 12 14.4 NNW 19 22 10 12 1017.2 1017.2 0.0
07/03:00pm 29.5 23.8 -0.8 14 14.2 N 19 24 10 13 1017.3 1017.3 0.0
07/02:30pm 29.3 23.5 0.0 15 13.9 NNW 20 24 11 13 1017.4 1017.4 0.0
07/02:00pm 29.8 25.6 3.7 19 13.2 NNW 15 20 8 11 1017.7 1017.7 0.0
07/01:30pm 30.0 25.4 1.5 16 14.0 NNE 15 20 8 11 1017.9 1017.9 0.0
07/01:00pm 29.7 25.8 1.2 16 13.8 ENE 11 15 6 8 1018.4 1018.4 0.0
07/12:30pm 28.7 24.7 2.8 19 12.9 ENE 13 17 7 9 1019.1 1019.1 0.0
07/12:00pm 28.4 24.9 5.3 23 11.9 E 13 19 7 10 1019.5 1019.5 0.0
07/11:30am 28.4 24.5 7.1 26 11.4 ESE 17 20 9 11 1019.9 1019.9 0.0
07/11:00am 26.9 25.0 11.8 39 8.6 ESE 13 20 7 11 1020.3 1020.3 0.0
07/10:30am 25.8 24.6 14.0 48 7.0 E 13 15 7 8 1020.6 1020.6 0.0
07/10:00am 23.8 22.5 13.6 52 5.9 E 13 17 7 9 1020.8 1020.8 0.0
07/09:30am 22.3 20.2 12.5 53 5.6 E 15 17 8 9 1020.8 1020.8 0.0
07/09:00am 20.7 19.3 13.4 63 4.2 ESE 13 17 7 9 1020.6 1020.6 0.0
07/08:30am 18.2 16.9 12.4 69 3.2 ESE 11 13 6 7 1020.4 1020.4 0.0
07/08:00am 16.7 15.9 13.0 79 2.1 ESE 9 11 5 6 1020.4 1020.4 0.0
07/07:30am 14.7 13.6 11.8 83 1.6 SE 9 11 5 6 1020.1 1020.1 0.0
07/07:00am 13.8 11.7 11.0 83 1.5 SE 13 13 7 7 1019.8 1019.8 0.0
07/06:30am 14.5 13.0 11.8 84 1.5 SSE 11 11 6 6 1019.3 1019.3 0.0
07/06:00am 15.1 14.5 12.4 84 1.5 SSE 7 9 4 5 1019.0 1019.0 0.0
07/05:30am 15.6 15.2 12.9 84 1.5 SE 7 7 4 4 1018.9 1018.9 0.0
07/05:00am 16.0 15.8 13.1 83 1.6 SE 6 7 3 4 1019.0 1019.0 0.0
07/04:30am 16.1 15.6 12.7 80 1.9 SE 7 9 4 5 1019.0 1019.0 0.0
07/04:00am 16.4 16.7 12.2 76 2.3 SSE 2 6 1 3 1019.1 1019.1 0.0
07/03:30am 16.8 16.3 12.1 74 2.6 WSW 6 7 3 4 1019.2 1019.2 0.0
07/03:00am 16.9 15.9 12.2 74 2.6 WSW 9 11 5 6 1019.3 1019.3 0.0
07/02:30am 17.2 16.3 12.5 74 2.6 SW 9 11 5 6 1019.5 1019.5 0.0
07/02:00am 17.1 15.7 12.2 73 2.7 SW 11 13 6 7 1019.7 1019.7 0.0
07/01:30am 16.5 15.8 11.9 74 2.5 SW 7 9 4 5 1019.9 1019.9 0.0
07/01:00am 16.7 16.1 12.3 75 2.4 SSW 7 9 4 5 1020.1 1020.1 0.0
07/12:30am 17.2 15.6 12.9 76 2.4 SSW 13 15 7 8 1020.2 1020.2 0.0
07/12:00am 17.0 16.1 12.5 75 2.5 SSW 9 9 5 5 1020.0 1020.0 0.0
 
Date/Time
WST
Temp
°C
App
Temp
°C
Dew
Point
°C
Rel
Hum
%
Delta-T
°C
Wind Press
QNH
hPa
Press
MSL
hPa
Rain since
9am
mm
Dir  Spd
km/h
Gust
km/h
Spd
kts
Gust
kts
06/11:30pm 17.6 17.2 12.9 74 2.6 S 7 9 4 5 1020.0 1020.0 0.0
06/11:00pm 18.3 17.7 13.4 73 2.8 SSW 9 11 5 6 1020.1 1020.1 0.0
06/10:30pm 18.5 16.8 13.6 73 2.8 SSW 15 15 8 8 1020.2 1020.2 0.0
06/10:00pm 18.7 18.3 14.2 75 2.6 SSW 9 15 5 8 1020.3 1020.3 0.0
06/09:30pm 19.5 19.0 15.0 75 2.6 SW 11 15 6 8 1020.1 1020.1 0.0
06/09:00pm 19.2 18.8 15.1 77 2.4 NNW 11 24 6 13 1019.9 1019.9 0.0
06/08:30pm 19.8 19.0 15.0 74 2.8 N 13 15 7 8 1019.6 1019.6 0.0
06/08:00pm 20.2 19.4 15.0 72 3.0 N 13 13 7 7 1019.3 1019.3 0.0
06/07:30pm 20.4 19.8 14.7 70 3.3 N 11 13 6 7 1019.2 1019.2 0.0
06/07:00pm 20.8 20.2 14.7 68 3.6 N 11 11 6 6 1019.0 1019.0 0.0
06/06:30pm 21.0 19.9 14.2 65 4.0 N 13 15 7 8 1018.6 1018.6 0.0
06/06:00pm 22.4 21.6 14.0 59 4.9 N 11 15 6 8 1018.2 1018.2 0.0
06/05:30pm 23.6 21.4 13.2 52 6.0 N 17 22 9 12 1017.8 1017.8 0.0
06/05:00pm 24.5 21.6 12.8 48 6.7 N 20 28 11 15 1017.6 1017.6 0.0
06/04:30pm 25.0 21.3 11.6 43 7.6 NNE 22 30 12 16 1017.4 1017.4 0.0
06/04:00pm 26.0 21.8 9.8 36 8.9 N 22 28 12 15 1017.3 1017.3 0.0
06/03:30pm 26.4 20.8 5.4 26 10.8 N 24 28 13 15 1017.3 1017.3 0.0
06/03:00pm 26.8 21.4 6.2 27 10.7 N 24 28 13 15 1017.5 1017.5 0.0
06/02:30pm 27.6 22.3 5.2 24 11.5 N 22 28 12 15 1017.7 1017.7 0.0
06/02:00pm 27.5 21.4 2.6 20 12.2 NNE 24 30 13 16 1017.9 1017.9 0.0
06/01:30pm 27.9 22.5 2.2 19 12.6 N 20 26 11 14 1018.3 1018.3 0.0
06/01:00pm 28.3 22.4 1.7 18 12.9 NNE 22 26 12 14 1018.6 1018.6 0.0
06/12:30pm 27.8 22.1 2.8 20 12.3 NNE 22 28 12 15 1019.2 1019.2 0.0
06/12:00pm 28.6 24.0 3.5 20 12.6 NNE 17 22 9 12 1019.6 1019.6 0.0
06/11:30am 28.2 23.5 0.9 17 13.1 ENE 15 20 8 11 1019.9 1019.9 0.0
06/11:00am 27.3 22.8 4.4 23 11.6 ENE 17 20 9 11 1020.3 1020.3 0.0
06/10:30am 26.6 23.3 8.1 31 10.0 E 15 20 8 11 1020.5 1020.5 0.0
06/10:00am 25.7 22.8 11.1 40 8.2 SE 17 20 9 11 1020.7 1020.7 0.0
06/09:30am 24.1 22.1 13.9 53 6.0 SE 17 20 9 11 1020.7 1020.7 0.0
06/09:00am 22.2 21.5 15.3 65 4.1 SSE 13 15 7 8 1020.7 1020.7 0.0
06/08:30am 20.5 19.4 15.3 72 3.1 ESE 15 19 8 10 1020.4 1020.4 0.0
06/08:00am 19.5 18.7 16.0 80 2.1 SE 15 17 8 9 1020.3 1020.3 0.0
06/07:30am 17.5 16.2 14.8 84 1.6 ESE 15 19 8 10 1019.9 1019.9 0.0
06/07:00am 16.8 14.9 14.1 84 1.5 ESE 17 19 9 10 1019.6 1019.6 0.0
06/06:30am 17.1 15.7 14.6 85 1.4 ESE 15 19 8 10 1019.4 1019.4 0.0
06/06:00am 16.8 16.8 14.3 85 1.4 ESE 7 9 4 5 1019.1 1019.1 0.0
06/05:30am 16.6 16.2 14.1 85 1.4 SE 9 11 5 6 1019.0 1019.0 0.0
06/05:00am 17.0 16.5 14.8 87 1.3 SE 11 13 6 7 1018.7 1018.7 0.0
06/04:30am 17.0 16.2 15.0 88 1.2 SE 13 15 7 8 1018.4 1018.4 0.0
06/04:00am 17.2 16.5 15.4 89 1.0 SE 13 15 7 8 1018.5 1018.5 0.0
06/03:30am 16.9 16.5 15.2 90 1.0 SE 11 15 6 8 1018.3 1018.3 0.0
06/03:00am 16.8 16.4 15.2 90 0.9 SE 11 11 6 6 1018.1 1018.1 0.0
06/02:30am 16.9 16.5 15.1 89 1.0 SSE 11 13 6 7 1018.2 1018.2 0.0
06/02:00am 17.4 17.2 15.6 89 1.1 SSE 11 13 6 7 1018.2 1018.2 0.0
06/01:30am 18.3 18.8 16.5 89 1.1 SSE 9 11 5 6 1018.2 1018.2 0.0
06/01:00am 18.3 18.3 16.3 88 1.2 S 11 13 6 7 1018.1 1018.1 0.0
06/12:30am 19.5 21.0 17.5 88 1.2 S 6 7 3 4 1018.0 1018.0 0.0
06/12:00am 19.6 20.8 17.4 87 1.3 NE 7 7 4 4 1018.0 1018.0 0.0
 
Date/Time
WST
Temp
°C
App
Temp
°C
Dew
Point
°C
Rel
Hum
%
Delta-T
°C
Wind Press
QNH
hPa
Press
MSL
hPa
Rain since
9am
mm
Dir  Spd
km/h
Gust
km/h
Spd
kts
Gust
kts
05/11:30pm 19.9 21.2 17.5 86 1.5 NNE 7 9 4 5 1018.0 1018.0 0.0
05/11:00pm 21.0 21.5 18.4 85 1.6 NNE 13 15 7 8 1018.1 1018.1 0.0

Other formats

Comma delimited format used in spreadsheet applications
http://www.bom.gov.au/fwo/IDW60801/IDW60801.95305.axf

JavaScript Object Notation format (JSON) in row-major order
http://www.bom.gov.au/fwo/IDW60801/IDW60801.95305.json

Data quality

Most of these data are generated automatically and are frequently updated. Quality checks on data are not normally performed. It is possible for incorrect values to appear. Refer to information at About Latest Weather Observations and please check the disclaimer before using these data.